Time;durP1;ratioP1;P1;durP2;ratioP2;P2;SDS_P1;SDS_P2;PMS_P1;PMS_P2;Temp;Humidity;BMP_temperature;BMP_pressure;BME280_temperature;BME280_humidity;BME280_pressure;Samples;Min_cycle;Max_cycle;Signal;HPM_P1;HPM_P2
2022/08/05 00:00:06;;;;;;;6.10;3.53;;;;;;;20.24;100.00;101374.56;5207769;28;20038;-72
2022/08/05 00:02:37;;;;;;;6.37;4.07;;;;;;;20.29;100.00;101374.97;5209165;28;20049;-71
2022/08/05 00:05:08;;;;;;;7.30;4.10;;;;;;;20.53;100.00;101378.94;5211439;28;20105;-72
2022/08/05 00:07:40;;;;;;;7.63;4.07;;;;;;;20.47;100.00;101379.53;5211120;28;20026;-71
2022/08/05 00:10:11;;;;;;;6.93;4.47;;;;;;;20.20;100.00;101375.81;5210561;28;20025;-71
2022/08/05 00:12:43;;;;;;;9.53;4.23;;;;;;;20.51;100.00;101377.44;5211350;28;20054;-72
2022/08/05 00:15:14;;;;;;;7.23;4.00;;;;;;;20.37;100.00;101371.56;5211543;28;20037;-71
2022/08/05 00:17:45;;;;;;;9.63;5.03;;;;;;;20.47;100.00;101384.00;5191945;28;20055;-71
2022/08/05 00:20:17;;;;;;;7.57;4.03;;;;;;;20.61;99.76;101388.03;5211046;28;20036;-71
2022/08/05 00:22:48;;;;;;;10.90;5.20;;;;;;;20.45;100.00;101376.19;5210693;28;20172;-71
2022/08/05 00:25:19;;;;;;;8.43;4.23;;;;;;;20.68;98.35;101387.28;5193614;28;20029;-71
2022/08/05 00:27:50;;;;;;;9.77;4.73;;;;;;;20.49;100.00;101382.88;5210989;28;20026;-71
2022/08/05 00:30:22;;;;;;;11.13;5.40;;;;;;;20.19;100.00;101376.81;5210629;28;20037;-72
2022/08/05 00:32:53;;;;;;;10.60;5.27;;;;;;;20.01;100.00;101364.19;5209418;28;20096;-71
2022/08/05 00:35:24;;;;;;;10.03;4.80;;;;;;;20.48;100.00;101388.34;5210516;28;20032;-72
2022/08/05 00:37:55;;;;;;;9.23;4.30;;;;;;;20.63;100.00;101399.38;5210985;28;20034;-71
2022/08/05 00:40:28;;;;;;;8.67;4.97;;;;;;;20.14;100.00;101403.78;5210649;28;20490;-71
2022/08/05 00:43:01;;;;;;;8.47;4.97;;;;;;;20.46;100.00;101393.81;5210411;28;20089;-71
2022/08/05 00:45:32;;;;;;;7.68;4.45;;;;;;;20.39;100.00;101385.56;5210069;28;20030;-71
2022/08/05 00:48:04;;;;;;;10.70;5.37;;;;;;;19.99;100.00;101384.75;5209251;28;20029;-71
2022/08/05 00:50:36;;;;;;;8.00;4.80;;;;;;;20.07;100.00;101384.91;5192830;28;20058;-72
2022/08/05 00:53:08;;;;;;;9.30;5.03;;;;;;;20.30;100.00;101363.34;5210142;28;20026;-71
2022/08/05 00:55:40;;;;;;;11.70;6.37;;;;;;;19.93;100.00;101372.06;5210547;28;20022;-71
2022/08/05 00:58:13;;;;;;;12.47;5.07;;;;;;;20.37;100.00;101378.72;5192698;28;20037;-72
2022/08/05 01:00:45;;;;;;;9.10;5.57;;;;;;;20.46;100.00;101380.50;5209643;28;20061;-71
2022/08/05 01:03:16;;;;;;;14.97;5.63;;;;;;;20.28;100.00;101381.25;5209308;28;20054;-70
2022/08/05 01:05:48;;;;;;;11.53;5.23;;;;;;;20.18;100.00;101380.44;5209630;28;20079;-71
2022/08/05 01:08:19;;;;;;;11.03;5.50;;;;;;;20.15;100.00;101380.72;5229205;23;20443;-71
2022/08/05 01:11:26;;;;;;;11.60;5.00;;;;;;;20.43;100.00;101399.41;5242591;28;20401;-71
2022/08/05 01:14:15;;;;;;;10.70;5.07;;;;;;;20.19;100.00;101411.38;5207375;28;20119;-71
2022/08/05 01:17:07;;;;;;;10.43;5.27;;;;;;;20.38;100.00;101426.47;5248576;28;20063;-71
2022/08/05 01:20:04;;;;;;;11.13;5.17;;;;;;;20.28;100.00;101444.25;5250546;28;20021;-71
2022/08/05 01:22:45;;;;;;;6.40;4.20;;;;;;;20.34;100.00;101458.78;5250580;28;20391;-71
2022/08/05 01:25:25;;;;;;;8.17;4.47;;;;;;;20.37;100.00;101469.16;5250972;28;20471;-72
2022/08/05 01:28:17;;;;;;;11.03;4.67;;;;;;;20.34;100.00;101472.09;5251158;28;20049;-71
2022/08/05 01:31:21;;;;;;;7.50;4.40;;;;;;;20.44;100.00;101470.25;5251187;28;20021;-72
2022/08/05 01:34:18;;;;;;;10.70;4.73;;;;;;;20.21;100.00;101451.97;5247288;28;20123;-70
2022/08/05 01:37:04;;;;;;;7.67;4.00;;;;;;;20.15;100.00;101439.22;5251761;28;20033;-71
2022/08/05 01:39:37;;;;;;;8.30;4.10;;;;;;;20.33;100.00;101433.19;5251238;28;20032;-71
2022/08/05 01:42:12;;;;;;;7.35;4.18;;;;;;;20.27;100.00;101435.44;5266428;28;20550;-71
2022/08/05 01:44:46;;;;;;;8.17;4.30;;;;;;;20.30;100.00;101458.22;5250870;28;20029;-71
2022/08/05 01:47:19;;;;;;;12.43;4.18;;;;;;;20.24;100.00;101464.97;5251263;28;20028;-71
2022/08/05 01:49:53;;;;;;;8.63;4.22;;;;;;;20.14;100.00;101459.63;5251394;28;20029;-72
2022/08/05 01:52:26;;;;;;;12.73;5.00;;;;;;;20.15;100.00;101453.34;5252182;28;20032;-72
2022/08/05 01:55:00;;;;;;;11.53;4.60;;;;;;;19.94;100.00;101432.19;5252315;28;20116;-71
2022/08/05 01:57:40;;;;;;;10.73;4.37;;;;;;;19.96;100.00;101440.88;5252159;28;20104;-71
2022/08/05 02:00:12;;;;;;;10.80;4.37;;;;;;;19.92;100.00;101428.84;5251946;28;20483;-72
2022/08/05 02:02:53;;;;;;;9.00;3.57;;;;;;;20.06;100.00;101415.16;5250102;28;20071;-72
2022/08/05 02:05:28;;;;;;;11.53;3.97;;;;;;;19.98;100.00;101401.72;5251225;28;20021;-71
2022/08/05 02:08:00;;;;;;;8.30;3.80;;;;;;;19.91;100.00;101377.50;5251040;28;20102;-71
2022/08/05 02:10:38;;;;;;;10.90;4.17;;;;;;;19.71;100.00;101376.66;5251074;28;20033;-71
2022/08/05 02:13:17;;;;;;;11.43;5.33;;;;;;;19.65;100.00;101374.56;5250470;28;20040;-71
2022/08/05 02:15:54;;;;;;;11.47;3.83;;;;;;;19.62;100.00;101386.28;5250807;28;20100;-71
2022/08/05 02:18:30;;;;;;;8.47;4.27;;;;;;;19.78;100.00;101428.28;5249435;28;20060;-71
2022/08/05 02:21:12;;;;;;;11.40;3.67;;;;;;;19.81;100.00;101420.00;5250922;28;20040;-70
2022/08/05 02:23:48;;;;;;;16.07;6.43;;;;;;;19.61;100.00;101381.97;5250654;28;20526;-70
2022/08/05 02:26:33;;;;;;;10.13;4.07;;;;;;;19.64;100.00;101394.97;5250871;28;20021;-71
2022/08/05 02:29:06;;;;;;;9.67;4.10;;;;;;;19.66;100.00;101419.59;5249052;28;20036;-71
2022/08/05 02:31:39;;;;;;;8.30;3.97;;;;;;;19.59;100.00;101414.00;5248135;28;20033;-70
2022/08/05 02:34:11;;;;;;;10.70;4.40;;;;;;;19.63;100.00;101429.66;5249469;28;20032;-73
2022/08/05 02:36:50;;;;;;;12.50;4.50;;;;;;;19.77;100.00;101423.09;5250555;28;20025;-71
2022/08/05 02:39:23;;;;;;;13.23;4.13;;;;;;;19.57;100.00;101423.91;5247897;28;20079;-72
2022/08/05 02:41:57;;;;;;;9.47;3.83;;;;;;;19.67;100.00;101436.38;5249868;28;20087;-71
2022/08/05 02:44:35;;;;;;;7.70;4.35;;;;;;;19.66;100.00;101434.69;5249690;28;20069;-71
2022/08/05 02:47:08;;;;;;;10.20;5.00;;;;;;;19.51;100.00;101420.97;5249355;28;20028;-72
2022/08/05 02:49:41;;;;;;;12.63;6.33;;;;;;;19.61;100.00;101416.50;5247973;28;20116;-71
2022/08/05 02:52:19;;;;;;;9.70;4.60;;;;;;;19.59;100.00;101419.31;5265142;28;20464;-71
2022/08/05 02:54:52;;;;;;;8.97;4.23;;;;;;;19.54;100.00;101405.59;5249430;28;20027;-71
2022/08/05 02:57:24;;;;;;;12.13;4.40;;;;;;;19.49;100.00;101397.19;5249547;28;20021;-71
2022/08/05 02:59:56;;;;;;;12.67;3.87;;;;;;;19.45;100.00;101391.31;5249897;28;20075;-70
2022/08/05 03:02:30;;;;;;;10.40;4.10;;;;;;;19.40;100.00;101404.19;5247770;28;20039;-71
2022/08/05 03:05:03;;;;;;;11.77;4.57;;;;;;;19.51;100.00;101397.06;5250169;28;20397;-71
2022/08/05 03:07:35;;;;;;;10.20;4.50;;;;;;;19.40;100.00;101398.00;5248434;28;20017;-71
2022/08/05 03:10:08;;;;;;;9.00;4.63;;;;;;;19.39;100.00;101393.69;5248584;28;20059;-71
2022/08/05 03:12:40;;;;;;;15.00;4.73;;;;;;;19.35;100.00;101390.47;5247163;28;20463;-71
2022/08/05 03:15:11;;;;;;;8.57;4.30;;;;;;;19.48;100.00;101406.13;5248960;28;20094;-72
2022/08/05 03:17:42;;;;;;;7.67;4.20;;;;;;;19.50;100.00;101408.66;5248559;28;20453;-72
2022/08/05 03:20:13;;;;;;;14.20;4.50;;;;;;;19.58;100.00;101412.28;5248546;28;20364;-72
2022/08/05 03:22:45;;;;;;;11.90;5.03;;;;;;;19.39;100.00;101415.75;5249323;28;20437;-72
2022/08/05 03:25:19;;;;;;;13.80;5.70;;;;;;;19.63;100.00;101435.81;5248601;28;20033;-72
2022/08/05 03:27:50;;;;;;;8.95;4.72;;;;;;;19.63;100.00;101427.00;5249240;28;20108;-71
2022/08/05 03:30:23;;;;;;;10.53;4.67;;;;;;;19.64;100.00;101436.63;5248837;28;20127;-71
2022/08/05 03:32:54;;;;;;;9.07;4.60;;;;;;;19.61;100.00;101426.28;5248014;28;20493;-71
2022/08/05 03:35:27;;;;;;;11.30;5.00;;;;;;;19.52;100.00;101439.44;5248078;28;20025;-71
2022/08/05 03:38:01;;;;;;;13.20;5.30;;;;;;;19.63;100.00;101429.66;5247532;28;20032;-71
2022/08/05 03:40:32;;;;;;;8.73;4.40;;;;;;;19.51;100.00;101435.09;5248625;28;20032;-71
2022/08/05 03:43:03;;;;;;;12.20;5.07;;;;;;;19.40;100.00;101437.84;5247142;28;20029;-71
2022/08/05 03:45:35;;;;;;;13.27;5.10;;;;;;;19.36;100.00;101429.31;5248371;28;20017;-72
2022/08/05 03:48:06;;;;;;;12.37;4.10;;;;;;;19.32;100.00;101439.38;5248271;28;20028;-70
2022/08/05 03:51:06;;;;;;;7.93;4.10;;;;;;;19.54;100.00;101431.31;5247936;28;20025;-71
2022/08/05 03:53:47;;;;;;;10.17;4.37;;;;;;;19.53;100.00;101425.16;5248013;28;20108;-71
2022/08/05 03:56:27;;;;;;;16.27;4.57;;;;;;;19.55;100.00;101428.53;5248023;28;20632;-71
2022/08/05 03:59:01;;;;;;;13.57;5.17;;;;;;;19.27;100.00;101420.34;5248002;28;20052;-70
2022/08/05 04:01:36;;;;;;;10.40;5.53;;;;;;;19.49;100.00;101415.81;5248048;28;20024;-71
2022/08/05 04:04:09;;;;;;;13.97;5.20;;;;;;;19.24;100.00;101407.34;5247183;28;20029;-71
2022/08/05 04:06:41;;;;;;;14.00;4.57;;;;;;;19.16;100.00;101415.16;5247850;28;20546;-73
2022/08/05 04:09:14;;;;;;;12.47;5.30;;;;;;;19.19;100.00;101409.56;5248293;28;20321;-71
2022/08/05 04:11:45;;;;;;;12.33;4.90;;;;;;;19.08;100.00;101406.00;5247712;28;20025;-72
2022/08/05 04:14:18;;;;;;;13.20;5.00;;;;;;;19.20;100.00;101408.63;5247138;28;20468;-71
2022/08/05 04:16:49;;;;;;;9.80;4.13;;;;;;;19.30;100.00;101403.31;5247240;28;20546;-72
2022/08/05 04:19:20;;;;;;;11.17;5.10;;;;;;;19.43;100.00;101411.00;5248820;28;20017;-71
2022/08/05 04:21:51;;;;;;;14.60;5.50;;;;;;;19.41;100.00;101405.03;5247918;28;20044;-72
2022/08/05 04:24:23;;;;;;;11.93;4.80;;;;;;;19.32;100.00;101412.81;5248395;28;20021;-71
2022/08/05 04:26:54;;;;;;;14.93;5.27;;;;;;;19.13;100.00;101402.97;5248485;28;20045;-71
2022/08/05 04:29:25;;;;;;;11.37;5.63;;;;;;;19.03;100.00;101396.75;5247988;28;20025;-71
2022/08/05 04:31:57;;;;;;;14.20;5.50;;;;;;;19.10;100.00;101409.38;5247854;28;20108;-70
2022/08/05 04:34:28;;;;;;;8.07;4.77;;;;;;;19.14;100.00;101415.28;5248020;28;20040;-71
2022/08/05 04:37:00;;;;;;;9.13;4.90;;;;;;;19.32;100.00;101410.16;5248274;28;20027;-71
2022/08/05 04:39:32;;;;;;;9.77;4.97;;;;;;;19.05;100.00;101410.75;5248458;28;20060;-71
2022/08/05 04:42:03;;;;;;;9.30;4.83;;;;;;;19.13;100.00;101428.72;5247227;28;20044;-71
2022/08/05 04:44:35;;;;;;;12.33;4.83;;;;;;;19.31;100.00;101426.22;5248168;28;20013;-71
2022/08/05 04:47:06;;;;;;;16.27;4.90;;;;;;;19.29;100.00;101437.00;5247576;28;20027;-71
2022/08/05 04:49:38;;;;;;;12.57;5.47;;;;;;;19.07;100.00;101424.72;5252368;28;20021;-71
2022/08/05 04:52:09;;;;;;;13.93;5.37;;;;;;;19.09;100.00;101423.59;5252304;28;20021;-71
2022/08/05 04:54:41;;;;;;;13.37;5.80;;;;;;;19.08;100.00;101421.09;5249923;28;20025;-71
2022/08/05 04:57:12;;;;;;;13.27;6.30;;;;;;;19.30;100.00;101428.06;5251353;28;20052;-70
2022/08/05 04:59:43;;;;;;;12.90;5.47;;;;;;;19.07;100.00;101419.41;5251818;28;20021;-71
2022/08/05 05:02:15;;;;;;;11.13;5.40;;;;;;;19.02;100.00;101422.50;5250841;28;20056;-71
2022/08/05 05:04:46;;;;;;;11.50;4.80;;;;;;;19.13;100.00;101426.03;5252270;28;20051;-71
2022/08/05 05:07:17;;;;;;;13.30;5.73;;;;;;;19.18;100.00;101426.47;5250490;28;20083;-71
2022/08/05 05:09:48;;;;;;;11.10;4.90;;;;;;;19.23;100.00;101424.25;5252181;28;20040;-70
2022/08/05 05:12:20;;;;;;;11.40;5.20;;;;;;;19.11;100.00;101436.81;5250560;28;20033;-70
2022/08/05 05:14:51;;;;;;;10.00;5.53;;;;;;;18.98;100.00;101423.72;5251949;28;20461;-70
2022/08/05 05:17:22;;;;;;;15.17;5.60;;;;;;;19.14;100.00;101425.06;5265512;28;20696;-71
2022/08/05 05:19:56;;;;;;;15.07;5.60;;;;;;;19.04;100.00;101425.81;5267098;28;20135;-71
2022/08/05 05:22:27;;;;;;;12.65;5.43;;;;;;;19.12;100.00;101433.16;5250874;28;20484;-71
2022/08/05 05:24:59;;;;;;;10.33;5.73;;;;;;;19.08;100.00;101426.41;5251528;28;20029;-72
2022/08/05 05:27:32;;;;;;;15.17;6.13;;;;;;;19.15;100.00;101427.59;5251236;28;20021;-70
2022/08/05 05:30:03;;;;;;;13.33;6.57;;;;;;;19.25;100.00;101446.22;5251197;28;20036;-70
2022/08/05 05:32:35;;;;;;;9.90;5.23;;;;;;;19.26;100.00;101447.88;5250165;28;20017;-70
2022/08/05 05:35:06;;;;;;;13.03;5.43;;;;;;;19.22;100.00;101449.13;5251798;28;20033;-70
2022/08/05 05:37:56;;;;;;;10.73;5.43;;;;;;;19.30;100.00;101457.28;5249993;28;20025;-72
2022/08/05 05:40:29;;;;;;;12.83;5.43;;;;;;;19.20;100.00;101451.91;5250971;28;20072;-70
2022/08/05 05:43:00;;;;;;;9.85;5.10;;;;;;;19.31;100.00;101458.94;5251551;28;20032;-71
2022/08/05 05:45:32;;;;;;;10.53;4.60;;;;;;;19.12;100.00;101465.03;5250189;28;20083;-71
2022/08/05 05:48:06;;;;;;;6.87;3.70;;;;;;;19.04;100.00;101470.13;5250204;28;20036;-71
2022/08/05 05:50:39;;;;;;;11.68;5.18;;;;;;;18.92;100.00;101464.06;5251050;28;20037;-71
2022/08/05 05:53:12;;;;;;;13.30;5.50;;;;;;;19.14;100.00;101478.16;5250163;28;20023;-71
2022/08/05 05:55:44;;;;;;;11.70;4.57;;;;;;;18.94;100.00;101476.22;5251368;28;20091;-70
2022/08/05 05:58:16;;;;;;;11.77;4.10;;;;;;;19.03;100.00;101476.41;5251219;28;20021;-71
2022/08/05 06:00:47;;;;;;;8.80;3.60;;;;;;;19.16;100.00;101473.56;5247939;28;20082;-71
2022/08/05 06:03:18;;;;;;;9.47;3.57;;;;;;;18.96;100.00;101482.25;5251622;28;20035;-70
2022/08/05 06:05:49;;;;;;;10.67;3.90;;;;;;;19.12;100.00;101482.75;5250086;28;20079;-71
2022/08/05 06:08:21;;;;;;;10.57;3.60;;;;;;;19.11;100.00;101481.94;5251957;28;20045;-70
2022/08/05 06:10:52;;;;;;;9.20;3.87;;;;;;;19.05;100.00;101479.75;5250008;28;20017;-71
2022/08/05 06:13:23;;;;;;;11.83;3.90;;;;;;;19.18;100.00;101482.25;5251574;28;20024;-71
2022/08/05 06:15:55;;;;;;;9.70;4.07;;;;;;;18.93;100.00;101482.50;5249182;28;20033;-71
2022/08/05 06:18:27;;;;;;;12.27;3.93;;;;;;;19.13;100.00;101487.94;5250803;28;20021;-70
2022/08/05 06:20:58;;;;;;;11.07;4.50;;;;;;;19.08;100.00;101477.69;5249360;28;20133;-71
2022/08/05 06:23:30;;;;;;;10.70;5.07;;;;;;;19.38;100.00;101480.47;5250121;28;21228;-71
2022/08/05 06:26:02;;;;;;;10.43;3.50;;;;;;;19.32;100.00;101481.84;5250833;28;20017;-72
2022/08/05 06:28:33;;;;;;;9.90;3.10;;;;;;;19.40;100.00;101477.69;5250488;28;20025;-71
2022/08/05 06:31:04;;;;;;;9.10;3.40;;;;;;;19.49;100.00;101486.66;5249150;28;20255;-71
2022/08/05 06:33:36;;;;;;;11.47;3.73;;;;;;;19.49;100.00;101498.16;5250753;28;20468;-71
2022/08/05 06:36:07;;;;;;;7.70;3.07;;;;;;;19.50;100.00;101489.19;5249613;28;20102;-71
2022/08/05 06:38:38;;;;;;;7.80;3.73;;;;;;;19.45;100.00;101481.63;5250769;28;20017;-70
2022/08/05 06:41:10;;;;;;;11.00;3.77;;;;;;;19.55;100.00;101489.63;5250061;28;20110;-71
2022/08/05 06:43:41;;;;;;;8.00;3.13;;;;;;;19.64;100.00;101500.41;5248086;28;20025;-72
2022/08/05 06:46:12;;;;;;;10.00;3.27;;;;;;;19.61;100.00;101495.38;5249243;28;20092;-72
2022/08/05 06:48:43;;;;;;;10.13;3.30;;;;;;;19.54;100.00;101498.56;5249300;28;20025;-71
2022/08/05 06:51:15;;;;;;;8.20;2.80;;;;;;;19.73;100.00;101515.53;5249735;28;20021;-71
2022/08/05 06:53:46;;;;;;;9.60;3.33;;;;;;;19.67;100.00;101513.44;5249887;28;20037;-71
2022/08/05 06:56:18;;;;;;;7.20;3.17;;;;;;;19.62;100.00;101520.97;5249228;28;20096;-71
2022/08/05 06:58:49;;;;;;;8.77;3.27;;;;;;;19.46;100.00;101524.97;5249979;28;20084;-71
2022/08/05 07:01:21;;;;;;;7.17;3.63;;;;;;;19.70;100.00;101534.41;5248128;28;20044;-70
2022/08/05 07:03:52;;;;;;;8.00;3.03;;;;;;;19.70;100.00;101532.59;5249620;28;20029;-72
2022/08/05 07:06:24;;;;;;;10.13;3.83;;;;;;;19.66;100.00;101533.84;5247893;28;20052;-72
2022/08/05 07:08:55;;;;;;;7.43;3.10;;;;;;;19.88;100.00;101539.06;5249057;28;20044;-72
2022/08/05 07:11:29;;;;;;;9.43;3.60;;;;;;;19.81;100.00;101536.13;5249078;28;20021;-69
2022/08/05 07:16:51;;;;;;;10.27;3.10;;;;;;;19.78;100.00;101526.59;5248419;28;20037;-72
2022/08/05 07:19:22;;;;;;;9.30;4.00;;;;;;;19.92;100.00;101532.50;5248836;28;20021;-71
2022/08/05 07:21:54;;;;;;;7.07;3.00;;;;;;;19.93;100.00;101544.81;5231182;28;20029;-71
2022/08/05 07:24:25;;;;;;;12.53;3.33;;;;;;;20.26;100.00;101553.44;5248845;28;20056;-72
2022/08/05 07:26:56;;;;;;;8.88;3.17;;;;;;;20.30;100.00;101548.66;5247857;28;20495;-72
2022/08/05 07:29:28;;;;;;;8.95;3.00;;;;;;;20.67;100.00;101561.25;5248892;28;20431;-72
2022/08/05 07:31:59;;;;;;;9.25;3.60;;;;;;;20.77;100.00;101555.91;5247866;28;20028;-70
2022/08/05 07:34:30;;;;;;;7.70;3.13;;;;;;;20.89;99.29;101559.25;5248369;28;20088;-69
2022/08/05 07:37:02;;;;;;;8.25;3.28;;;;;;;20.87;97.42;101553.25;5248839;28;20529;-70
2022/08/05 07:39:33;;;;;;;8.77;3.72;;;;;;;20.86;96.45;101564.03;5248676;28;20525;-70
2022/08/05 07:42:04;;;;;;;7.05;2.83;;;;;;;21.12;93.84;101574.13;5248744;28;20116;-70
2022/08/05 07:44:36;;;;;;;9.00;3.00;;;;;;;20.92;92.94;101568.81;5248242;28;20025;-70
2022/08/05 07:47:07;;;;;;;8.70;2.75;;;;;;;21.14;96.86;101572.13;5246162;28;20479;-70
2022/08/05 07:49:39;;;;;;;9.00;2.63;;;;;;;21.19;91.09;101572.53;5248783;28;20408;-70
2022/08/05 07:52:10;;;;;;;9.27;2.85;;;;;;;21.13;92.42;101576.63;5247146;28;20221;-73
2022/08/05 07:54:41;;;;;;;11.00;3.15;;;;;;;21.30;85.94;101584.00;5248256;28;20098;-71
2022/08/05 07:57:12;;;;;;;6.53;2.53;;;;;;;21.39;85.91;101576.00;5248879;28;20118;-71
2022/08/05 07:59:44;;;;;;;9.77;2.70;;;;;;;21.52;81.88;101575.66;5248944;28;20029;-71
2022/08/05 08:02:15;;;;;;;6.65;2.50;;;;;;;21.37;80.54;101593.09;5246573;28;20106;-72
2022/08/05 08:04:47;;;;;;;10.57;3.33;;;;;;;21.90;79.20;101585.47;5248773;28;20032;-71
2022/08/05 08:07:19;;;;;;;10.02;2.50;;;;;;;21.78;77.99;101591.94;5247889;28;20024;-71
2022/08/05 08:09:51;;;;;;;4.97;2.30;;;;;;;22.27;80.85;101588.19;5248720;28;20045;-71
2022/08/05 08:12:23;;;;;;;6.57;2.10;;;;;;;22.36;74.69;101589.91;5248248;28;20028;-72
2022/08/05 08:14:54;;;;;;;5.53;2.05;;;;;;;22.48;72.22;101596.69;5247021;28;20387;-70
2022/08/05 08:17:25;;;;;;;6.18;2.42;;;;;;;22.33;70.28;101599.06;5246935;28;20260;-71
2022/08/05 08:19:57;;;;;;;3.58;2.10;;;;;;;22.52;70.60;101599.06;5248383;28;20040;-71
2022/08/05 08:22:28;;;;;;;7.07;2.50;;;;;;;22.66;68.98;101600.38;5249578;28;20519;-71
2022/08/05 08:24:59;;;;;;;7.95;2.63;;;;;;;22.64;67.76;101608.53;5252834;28;20483;-71
2022/08/05 08:27:31;;;;;;;8.35;2.38;;;;;;;22.88;67.73;101614.25;5252084;28;20472;-71
2022/08/05 08:30:02;;;;;;;3.75;1.65;;;;;;;22.62;65.52;101620.38;5252188;28;20020;-72
2022/08/05 08:32:35;;;;;;;6.15;2.33;;;;;;;22.88;65.02;101623.13;5251308;28;20017;-71
2022/08/05 08:35:06;;;;;;;6.47;1.73;;;;;;;23.05;64.25;101616.06;5252649;28;20056;-71
2022/08/05 08:37:38;;;;;;;5.32;2.00;;;;;;;22.99;64.34;101618.50;5252058;28;20033;-71
2022/08/05 08:40:10;;;;;;;9.50;1.98;;;;;;;22.86;65.30;101641.13;5252168;28;20111;-71
2022/08/05 08:42:46;;;;;;;5.53;1.63;;;;;;;22.43;65.62;101625.69;5252168;28;20033;-72
2022/08/05 08:45:19;;;;;;;5.93;1.50;;;;;;;22.64;65.14;101621.06;5250193;28;20072;-71
2022/08/05 08:47:52;;;;;;;9.65;1.58;;;;;;;23.15;62.74;101629.31;5252361;28;20100;-71
2022/08/05 08:50:24;;;;;;;4.40;1.50;;;;;;;22.98;62.20;101630.19;5251593;28;20032;-71
2022/08/05 08:53:01;;;;;;;6.05;2.15;;;;;;;22.89;63.65;101645.28;5252091;28;20653;-71
2022/08/05 08:55:33;;;;;;;3.78;1.63;;;;;;;23.73;61.71;101646.69;5251601;28;20036;-72
2022/08/05 08:58:05;;;;;;;4.60;1.40;;;;;;;24.59;57.65;101646.63;5250783;28;20021;-71
2022/08/05 09:00:38;;;;;;;8.02;2.28;;;;;;;24.70;57.03;101648.13;5250760;28;20013;-71
2022/08/05 09:03:11;;;;;;;7.47;1.73;;;;;;;24.81;56.96;101657.66;5251258;28;20040;-73
2022/08/05 09:05:42;;;;;;;4.55;1.85;;;;;;;25.07;58.55;101654.00;5251925;28;20017;-71
2022/08/05 09:08:13;;;;;;;7.35;1.60;;;;;;;24.97;57.52;101664.06;5249721;28;20044;-71
2022/08/05 09:10:45;;;;;;;7.32;1.58;;;;;;;25.29;55.76;101667.69;5251805;28;20032;-71
2022/08/05 09:13:18;;;;;;;3.22;1.10;;;;;;;25.19;53.53;101654.47;5250438;28;20483;-72
2022/08/05 09:15:51;;;;;;;9.18;1.33;;;;;;;25.03;54.71;101659.88;5250331;28;20365;-72
2022/08/05 09:18:22;;;;;;;8.90;2.10;;;;;;;24.97;54.77;101672.09;5251586;28;20028;-72
2022/08/05 09:20:54;;;;;;;5.55;1.67;;;;;;;25.21;54.35;101670.38;5251335;28;20028;-72
2022/08/05 09:23:25;;;;;;;6.55;2.13;;;;;;;25.41;53.02;101672.72;5250813;28;20609;-72
2022/08/05 09:26:16;;;;;;;6.18;1.80;;;;;;;25.64;53.45;101674.66;5251476;28;20033;-72
2022/08/05 09:28:48;;;;;;;4.97;1.10;;;;;;;24.65;53.83;101675.41;5250957;28;20059;-72
2022/08/05 09:31:19;;;;;;;4.68;1.55;;;;;;;24.71;54.05;101687.31;5250113;28;20060;-72
2022/08/05 09:33:57;;;;;;;10.07;1.70;;;;;;;24.28;57.05;101690.88;5248426;28;20035;-72
2022/08/05 09:36:41;;;;;;;5.40;1.70;;;;;;;24.15;57.24;101693.16;5249754;28;20754;-72
2022/08/05 09:39:13;;;;;;;5.97;1.77;;;;;;;24.15;55.20;101698.53;5250718;28;20041;-73
2022/08/05 09:42:02;;;;;;;6.47;1.65;;;;;;;24.64;56.08;101697.84;5249407;28;20177;-72
2022/08/05 09:44:34;;;;;;;4.47;1.40;;;;;;;25.21;53.94;101697.19;5250663;28;20025;-72
2022/08/05 09:47:12;;;;;;;4.57;1.48;;;;;;;25.78;53.30;101703.47;5249955;28;20032;-72
2022/08/05 09:49:54;;;;;;;4.45;1.60;;;;;;;26.19;49.08;101699.78;5251038;28;20033;-72
2022/08/05 09:52:31;;;;;;;3.22;1.00;;;;;;;26.94;47.25;101695.78;5250326;28;20480;-72
2022/08/05 09:55:08;;;;;;;3.22;0.90;;;;;;;27.64;47.12;101694.78;5250964;28;20075;-71
2022/08/05 09:57:45;;;;;;;5.28;1.92;;;;;;;27.76;44.39;101685.25;5250013;28;20033;-72
2022/08/05 10:00:20;;;;;;;5.57;1.30;;;;;;;27.66;44.81;101695.44;5250070;28;20021;-72
2022/08/05 10:02:53;;;;;;;8.95;1.45;;;;;;;27.36;44.54;101703.50;5250060;28;20032;-72
2022/08/05 10:05:26;;;;;;;5.60;1.00;;;;;;;27.45;44.74;101702.41;5251543;28;20789;-72
2022/08/05 10:08:03;;;;;;;2.75;0.93;;;;;;;27.01;45.34;101707.47;5250320;28;20044;-72
2022/08/05 10:10:47;;;;;;;4.38;1.40;;;;;;;27.03;44.31;101715.38;5250476;28;20112;-72
2022/08/05 10:13:26;;;;;;;;;;;;;;;27.62;45.30;101708.44;5250501;28;20084;-72
2022/08/05 10:15:59;;;;;;;2.88;0.75;;;;;;;27.64;41.63;101710.94;5249765;28;19951;-72
2022/08/05 10:18:32;;;;;;;2.03;0.75;;;;;;;28.09;40.31;101710.06;5248638;28;20066;-71
2022/08/05 10:21:05;;;;;;;2.72;0.80;;;;;;;28.70;38.67;101718.81;5250944;28;20541;-71
2022/08/05 10:23:37;;;;;;;3.03;0.73;;;;;;;28.98;38.50;101716.22;5250191;28;20040;-71
2022/08/05 10:26:12;;;;;;;3.83;0.70;;;;;;;29.81;35.70;101711.16;5251078;28;20029;-70
2022/08/05 10:28:45;;;;;;;3.70;0.60;;;;;;;29.27;36.00;101723.50;5250905;28;20021;-71
2022/08/05 10:31:16;;;;;;;4.60;1.13;;;;;;;28.78;35.53;101723.25;5264850;28;20597;-71
2022/08/05 10:33:48;;;;;;;2.08;0.60;;;;;;;28.29;35.32;101731.03;5251460;28;20033;-71
2022/08/05 10:36:19;;;;;;;3.20;0.70;;;;;;;28.60;35.78;101725.38;5249997;28;20025;-71
2022/08/05 10:38:56;;;;;;;2.85;0.90;;;;;;;27.82;36.53;101718.66;5250568;28;20601;-72
2022/08/05 10:41:36;;;;;;;2.33;0.70;;;;;;;27.99;37.33;101730.06;5248828;28;20028;-72
2022/08/05 10:44:12;;;;;;;3.50;1.00;;;;;;;27.47;37.60;101712.97;5250590;28;20021;-72
2022/08/05 10:46:52;;;;;;;2.70;0.60;;;;;;;28.05;36.63;101725.75;5248946;28;20413;-72
2022/08/05 10:49:25;;;;;;;4.30;0.70;;;;;;;27.93;36.72;101732.69;5265736;28;20029;-72
2022/08/05 10:51:56;;;;;;;2.60;1.00;;;;;;;28.31;35.59;101726.28;5249430;28;20056;-72
2022/08/05 10:55:01;;;;;;;2.42;0.63;;;;;;;27.78;36.83;101733.50;5250248;28;20033;-72
2022/08/05 10:57:32;;;;;;;2.03;0.60;;;;;;;27.24;36.07;101741.59;5248258;28;20071;-72
2022/08/05 11:00:10;;;;;;;3.45;0.90;;;;;;;27.47;36.94;101746.09;5249669;28;20029;-72
2022/08/05 11:03:06;;;;;;;2.45;0.57;;;;;;;27.64;37.90;101746.75;5249083;28;20026;-72
2022/08/05 11:05:38;;;;;;;2.10;0.52;;;;;;;27.36;36.47;101746.50;5247980;28;20838;-71
2022/08/05 11:08:10;;;;;;;2.75;0.77;;;;;;;27.21;34.18;101750.03;5249960;28;20041;-71
2022/08/05 11:10:42;;;;;;;3.08;0.68;;;;;;;27.39;34.35;101743.44;5249017;28;20047;-72
2022/08/05 11:13:39;;;;;;;1.67;0.68;;;;;;;27.38;36.52;101750.72;5247418;28;20537;-72
2022/08/05 11:16:21;;;;;;;3.25;0.52;;;;;;;27.05;36.15;101759.88;5247478;28;20021;-73
2022/08/05 11:19:25;;;;;;;2.35;0.85;;;;;;;27.61;35.29;101754.34;5249284;28;20025;-71
2022/08/05 11:22:34;;;;;;;2.17;0.65;;;;;;;27.42;34.97;101752.00;5247872;28;20037;-72
2022/08/05 11:25:37;;;;;;;1.13;0.40;;;;;;;27.57;34.12;101767.34;5248193;28;20547;-72
2022/08/05 11:28:12;;;;;;;4.43;0.60;;;;;;;27.36;32.84;101765.34;5249180;28;20063;-71
2022/08/05 11:30:56;;;;;;;3.20;0.70;;;;;;;27.82;34.42;101774.34;5246832;28;20036;-71
2022/08/05 11:33:47;;;;;;;4.93;0.93;;;;;;;27.74;34.76;101762.63;5249230;28;20033;-71
2022/08/05 11:36:20;;;;;;;6.43;0.60;;;;;;;27.12;34.31;101762.69;5236328;28;20033;-72
2022/08/05 11:38:54;;;;;;;1.05;0.65;;;;;;;27.39;34.14;101773.03;5249224;28;20017;-73
2022/08/05 11:41:28;;;;;;;4.15;0.68;;;;;;;27.72;34.48;101766.56;5246744;28;20029;-73
2022/08/05 11:44:17;;;;;;;6.65;0.95;;;;;;;28.00;35.11;101769.41;5248775;28;20024;-73
2022/08/05 11:46:50;;;;;;;2.25;0.90;;;;;;;28.09;33.78;101785.47;5247507;28;20061;-72
2022/08/05 11:49:22;;;;;;;;;;;;;;;28.42;35.60;101781.53;5249260;28;20025;-71
2022/08/05 11:51:53;;;;;;;6.63;1.00;;;;;;;27.22;35.98;101783.94;5247198;28;20318;-72